createdAt,value
2022-08-30T00:01:28.546Z,58.85
2022-08-30T00:03:01.377Z,59.31
2022-08-30T00:04:35.109Z,59.46
2022-08-30T00:06:07.994Z,59.76
2022-08-30T00:07:39.874Z,59.88
2022-08-30T00:09:12.230Z,59.95
2022-08-30T00:10:44.152Z,60.23
2022-08-30T00:12:15.939Z,59.46
2022-08-30T00:13:50.759Z,59.99
2022-08-30T00:15:23.110Z,60.31
2022-08-30T00:16:55.043Z,60.17
2022-08-30T00:18:26.955Z,61.11
2022-08-30T00:19:58.919Z,60.65
2022-08-30T00:21:30.765Z,60.78
2022-08-30T00:23:03.827Z,60.35
2022-08-30T00:24:35.740Z,61.29
2022-08-30T00:26:08.306Z,61.37
2022-08-30T00:27:40.200Z,61.27
2022-08-30T00:29:12.022Z,61.05
2022-08-30T00:30:44.625Z,61.77
2022-08-30T00:32:16.570Z,62.21
2022-08-30T00:33:48.457Z,62.04
2022-08-30T00:35:20.671Z,62.22
2022-08-30T00:36:52.498Z,62.11
2022-08-30T00:38:24.910Z,62.22
2022-08-30T00:39:56.884Z,62.39
2022-08-30T00:41:28.955Z,62.75
2022-08-30T00:43:05.582Z,62.86
2022-08-30T00:44:37.856Z,62.09
2022-08-30T00:46:10.472Z,63.11
2022-08-30T00:47:42.399Z,63.02
2022-08-30T00:49:14.662Z,63.18
2022-08-30T00:50:49.894Z,62.62
2022-08-30T00:52:22.733Z,63.03
2022-08-30T00:53:56.903Z,63.18
2022-08-30T00:55:29.406Z,62.61
2022-08-30T00:57:01.247Z,63.46
2022-08-30T00:58:36.874Z,63.21
2022-08-30T01:00:09.688Z,63.18
2022-08-30T01:01:42.999Z,62.97
2022-08-30T01:03:15.870Z,62.30
2022-08-30T01:04:48.589Z,62.88
2022-08-30T01:06:20.889Z,62.22
2022-08-30T01:07:52.747Z,62.93
2022-08-30T01:09:24.682Z,63.05
2022-08-30T01:10:57.528Z,62.52
2022-08-30T01:12:30.188Z,62.38
2022-08-30T01:14:02.048Z,62.35
2022-08-30T01:15:34.525Z,62.45
2022-08-30T01:17:06.661Z,62.78
2022-08-30T01:18:39.542Z,62.60
2022-08-30T01:20:18.896Z,62.66
2022-08-30T01:21:54.781Z,63.04
2022-08-30T01:23:27.550Z,63.91
2022-08-30T01:25:00.715Z,63.83
2022-08-30T01:26:33.171Z,63.22
2022-08-30T01:28:07.609Z,64.22
2022-08-30T01:29:39.441Z,63.75
2022-08-30T01:31:11.485Z,63.32
2022-08-30T01:32:45.476Z,63.61
2022-08-30T01:34:17.392Z,63.98
2022-08-30T01:36:04.383Z,64.04
2022-08-30T01:37:36.896Z,64.40
2022-08-30T01:39:10.129Z,63.54
2022-08-30T01:40:42.295Z,64.19
2022-08-30T01:42:17.437Z,64.24
2022-08-30T01:43:50.952Z,64.65
2022-08-30T01:45:22.873Z,64.65
2022-08-30T01:46:54.869Z,63.97
2022-08-30T01:48:31.066Z,64.02
2022-08-30T01:50:06.259Z,64.64
2022-08-30T01:51:39.152Z,64.11
2022-08-30T01:53:13.085Z,64.46
2022-08-30T01:54:45.834Z,64.32
2022-08-30T01:56:17.824Z,64.45
2022-08-30T01:57:49.971Z,64.36
2022-08-30T01:59:21.817Z,64.35
2022-08-30T02:00:53.652Z,64.45
2022-08-30T02:02:27.808Z,64.43
2022-08-30T02:03:59.895Z,64.55
2022-08-30T02:05:32.097Z,64.71
2022-08-30T02:07:04.818Z,65.08
2022-08-30T02:08:37.023Z,64.43
2022-08-30T02:10:09.395Z,64.42
2022-08-30T02:11:41.293Z,65.29
2022-08-30T02:13:13.531Z,65.38
2022-08-30T02:14:45.360Z,65.32
2022-08-30T02:16:23.004Z,65.59
2022-08-30T02:17:57.121Z,65.87
2022-08-30T02:19:29.935Z,65.95
2022-08-30T02:21:01.600Z,64.90
2022-08-30T02:22:33.479Z,65.81
2022-08-30T02:24:05.625Z,65.30
2022-08-30T02:25:37.574Z,65.49
2022-08-30T02:27:09.502Z,65.49
2022-08-30T02:28:49.581Z,65.42
2022-08-30T02:30:22.220Z,65.58
2022-08-30T02:31:54.229Z,65.60
2022-08-30T02:33:25.974Z,66.10
2022-08-30T02:34:57.835Z,65.78
2022-08-30T02:36:29.591Z,65.39
2022-08-30T02:38:01.406Z,65.96
2022-08-30T02:39:33.235Z,66.32
2022-08-30T02:41:05.413Z,66.42
2022-08-30T02:42:37.193Z,66.31
2022-08-30T02:44:10.056Z,65.89
2022-08-30T02:45:42.303Z,66.09
2022-08-30T02:47:14.202Z,66.62
2022-08-30T02:48:46.043Z,65.83
2022-08-30T02:50:18.315Z,66.73
2022-08-30T02:51:50.472Z,66.51
2022-08-30T02:53:23.180Z,66.91
2022-08-30T02:54:55.399Z,66.50
2022-08-30T02:56:28.803Z,66.65
2022-08-30T02:58:00.770Z,67.15
2022-08-30T02:59:32.831Z,66.59
2022-08-30T03:01:05.924Z,67.00
2022-08-30T03:02:38.204Z,66.67
2022-08-30T03:04:10.252Z,66.57
2022-08-30T03:05:42.397Z,66.33
2022-08-30T03:07:14.637Z,67.28
2022-08-30T03:08:46.399Z,67.25
2022-08-30T03:10:18.277Z,66.79
2022-08-30T03:11:50.262Z,66.97
2022-08-30T03:13:22.140Z,67.43
2022-08-30T03:14:54.165Z,66.45
2022-08-30T03:16:26.063Z,66.92
2022-08-30T03:17:58.603Z,67.29
2022-08-30T03:19:30.508Z,67.54
2022-08-30T03:21:02.291Z,67.38
2022-08-30T03:22:34.335Z,67.76
2022-08-30T03:24:06.535Z,67.22
2022-08-30T03:25:39.557Z,66.96
2022-08-30T03:27:17.500Z,67.60
2022-08-30T03:28:49.340Z,67.79
2022-08-30T03:30:21.266Z,68.16
2022-08-30T03:31:54.113Z,67.25
2022-08-30T03:33:26.477Z,67.68
2022-08-30T03:34:59.898Z,67.66
2022-08-30T03:36:32.597Z,67.52
2022-08-30T03:38:04.362Z,67.47
2022-08-30T03:39:36.230Z,68.55
2022-08-30T03:41:09.161Z,67.98
2022-08-30T03:42:41.614Z,67.94
2022-08-30T03:44:15.363Z,68.33
2022-08-30T03:45:47.210Z,67.98
2022-08-30T03:47:19.146Z,68.82
2022-08-30T03:48:52.272Z,68.86
2022-08-30T03:50:24.169Z,68.20
2022-08-30T03:51:56.000Z,68.88
2022-08-30T03:53:27.889Z,68.68
2022-08-30T03:55:01.246Z,68.47
2022-08-30T03:56:33.060Z,68.20
2022-08-30T03:58:04.897Z,68.17
2022-08-30T03:59:36.842Z,68.64
2022-08-30T04:01:08.730Z,68.50
2022-08-30T04:02:41.882Z,69.02
2022-08-30T04:04:18.613Z,68.76
2022-08-30T04:05:53.897Z,69.04
2022-08-30T04:07:25.808Z,68.93
2022-08-30T04:08:57.639Z,69.03
2022-08-30T04:10:29.439Z,68.38
2022-08-30T04:12:01.284Z,68.51
2022-08-30T04:13:33.913Z,69.21
2022-08-30T04:15:06.327Z,68.30
2022-08-30T04:16:38.229Z,69.10
2022-08-30T04:18:10.357Z,69.14
2022-08-30T04:19:42.202Z,69.43
2022-08-30T04:21:14.355Z,68.97
2022-08-30T04:22:46.181Z,69.21
2022-08-30T04:24:18.070Z,68.96
2022-08-30T04:25:49.914Z,69.61
2022-08-30T04:27:21.766Z,69.79
2022-08-30T04:28:54.996Z,69.06
2022-08-30T04:30:26.856Z,69.83
2022-08-30T04:31:58.696Z,69.89
2022-08-30T04:33:30.458Z,69.37
2022-08-30T04:35:07.145Z,70.01
2022-08-30T04:36:39.131Z,69.93
2022-08-30T04:38:13.374Z,69.48
2022-08-30T04:39:46.463Z,69.60
2022-08-30T04:41:19.634Z,70.12
2022-08-30T04:42:54.480Z,70.31
2022-08-30T04:44:27.600Z,69.71
2022-08-30T04:45:59.571Z,70.41
2022-08-30T04:47:31.801Z,69.60
2022-08-30T04:49:04.593Z,69.50
2022-08-30T04:50:38.443Z,69.91
2022-08-30T04:52:16.771Z,70.57
2022-08-30T04:53:48.710Z,69.86
2022-08-30T04:55:20.660Z,70.23
2022-08-30T04:56:52.466Z,70.29
2022-08-30T04:58:24.829Z,69.88
2022-08-30T04:59:56.713Z,70.20
2022-08-30T05:01:30.855Z,70.73
2022-08-30T05:03:02.685Z,70.56
2022-08-30T05:04:34.498Z,70.26
2022-08-30T05:06:06.570Z,70.47
2022-08-30T05:07:38.397Z,70.30
2022-08-30T05:09:10.354Z,70.36
2022-08-30T05:10:45.044Z,70.97
2022-08-30T05:12:16.895Z,70.92
2022-08-30T05:13:49.890Z,71.14
2022-08-30T05:15:22.522Z,71.37
2022-08-30T05:16:54.410Z,71.30
2022-08-30T05:18:26.908Z,71.21
2022-08-30T05:20:01.528Z,70.57
2022-08-30T05:21:33.379Z,71.48
2022-08-30T05:23:06.235Z,71.61
2022-08-30T05:24:37.922Z,71.34
2022-08-30T05:26:13.418Z,71.81
2022-08-30T05:27:45.303Z,71.81
2022-08-30T05:29:17.152Z,71.51
2022-08-30T05:30:49.007Z,71.83
2022-08-30T05:32:20.847Z,71.94
2022-08-30T05:33:54.146Z,71.78
2022-08-30T05:35:26.089Z,71.93
2022-08-30T05:36:57.987Z,71.91
2022-08-30T05:38:29.792Z,72.24
2022-08-30T05:40:02.019Z,72.31
2022-08-30T05:41:35.508Z,71.84
2022-08-30T05:43:10.159Z,71.72
2022-08-30T05:44:48.703Z,71.76
2022-08-30T05:46:22.161Z,72.21
2022-08-30T05:47:54.265Z,71.68
2022-08-30T05:49:26.095Z,71.66
2022-08-30T05:51:12.036Z,72.10
2022-08-30T05:52:45.282Z,72.26
2022-08-30T05:54:17.176Z,72.63
2022-08-30T05:55:49.011Z,72.21
2022-08-30T05:57:20.900Z,72.64
2022-08-30T05:58:53.101Z,72.47
2022-08-30T06:00:25.085Z,72.36
2022-08-30T06:01:58.079Z,72.84
2022-08-30T06:03:32.916Z,72.68
2022-08-30T06:05:05.279Z,72.18
2022-08-30T06:06:39.737Z,71.97
2022-08-30T06:08:11.580Z,72.21
2022-08-30T06:09:43.454Z,72.08
2022-08-30T06:11:17.782Z,71.88
2022-08-30T06:12:49.674Z,72.20
2022-08-30T06:14:21.706Z,72.86
2022-08-30T06:15:53.576Z,72.13
2022-08-30T06:17:25.461Z,72.19
2022-08-30T06:18:58.568Z,72.18
2022-08-30T06:20:30.456Z,72.25
2022-08-30T06:22:02.351Z,72.07
2022-08-30T06:23:34.622Z,72.65
2022-08-30T06:25:06.921Z,72.75
2022-08-30T06:26:41.654Z,72.97
2022-08-30T06:28:13.679Z,72.40
2022-08-30T06:29:45.539Z,72.48
2022-08-30T06:31:19.459Z,72.89
2022-08-30T06:32:51.319Z,72.89
2022-08-30T06:34:23.214Z,73.08
2022-08-30T06:35:58.853Z,73.02
2022-08-30T06:37:33.071Z,72.85
2022-08-30T06:39:05.916Z,73.40
2022-08-30T06:40:37.841Z,72.74
2022-08-30T06:42:09.806Z,73.19
2022-08-30T06:43:44.468Z,72.96
2022-08-30T06:45:20.698Z,72.90
2022-08-30T06:46:52.597Z,72.37
2022-08-30T06:48:24.538Z,72.48
2022-08-30T06:49:57.057Z,72.12
2022-08-30T06:51:31.673Z,71.91
2022-08-30T06:53:06.165Z,71.48
2022-08-30T06:54:38.565Z,71.46
2022-08-30T06:56:16.552Z,72.11
2022-08-30T06:57:49.179Z,71.94
2022-08-30T06:59:21.063Z,70.76
2022-08-30T07:00:53.323Z,71.20
2022-08-30T07:02:25.837Z,71.19
2022-08-30T07:03:58.829Z,70.29
2022-08-30T07:05:30.677Z,70.24
2022-08-30T07:07:02.610Z,70.74
2022-08-30T07:08:34.455Z,70.66
2022-08-30T07:10:08.084Z,70.36
2022-08-30T07:11:40.650Z,69.81
2022-08-30T07:13:12.672Z,69.51
2022-08-30T07:14:44.655Z,69.54
2022-08-30T07:16:16.559Z,70.03
2022-08-30T07:18:06.950Z,69.92
2022-08-30T07:19:38.800Z,69.55
2022-08-30T07:21:13.738Z,69.76
2022-08-30T07:22:46.629Z,68.88
2022-08-30T07:24:19.613Z,68.98
2022-08-30T07:25:51.490Z,68.20
2022-08-30T07:27:23.268Z,67.06
2022-08-30T07:28:56.175Z,66.73
2022-08-30T07:30:28.358Z,66.67
2022-08-30T07:32:00.285Z,67.06
2022-08-30T07:33:32.684Z,66.90
2022-08-30T07:35:05.346Z,67.08
2022-08-30T07:36:38.058Z,66.84
2022-08-30T07:38:14.284Z,66.26
2022-08-30T07:39:48.064Z,66.26
2022-08-30T07:41:26.627Z,66.12
2022-08-30T07:43:02.139Z,65.78
2022-08-30T07:44:34.016Z,66.14
2022-08-30T07:46:07.950Z,65.59
2022-08-30T07:47:41.132Z,65.75
2022-08-30T07:49:13.159Z,65.81
2022-08-30T07:50:46.211Z,65.26
2022-08-30T07:52:18.014Z,65.39
2022-08-30T07:53:49.851Z,64.86
2022-08-30T07:55:21.790Z,65.00
2022-08-30T07:56:55.906Z,64.92
2022-08-30T07:58:27.883Z,65.07
2022-08-30T07:59:59.849Z,65.15
2022-08-30T08:01:32.085Z,63.89
2022-08-30T08:03:08.641Z,64.06
2022-08-30T08:04:40.826Z,64.49
2022-08-30T08:06:14.811Z,63.95
2022-08-30T08:07:46.791Z,63.83
2022-08-30T08:09:19.839Z,64.80
2022-08-30T08:10:51.800Z,64.34
2022-08-30T08:12:23.675Z,64.00
2022-08-30T08:13:55.677Z,63.33
2022-08-30T08:15:28.654Z,63.93
2022-08-30T08:17:00.949Z,63.37
2022-08-30T08:18:33.464Z,62.04
2022-08-30T08:20:08.580Z,61.64
2022-08-30T08:21:40.674Z,61.79
2022-08-30T08:23:12.556Z,62.45
2022-08-30T08:24:44.604Z,62.61
2022-08-30T08:26:16.529Z,61.06
2022-08-30T08:27:50.846Z,61.23
2022-08-30T08:29:23.135Z,61.15
2022-08-30T08:30:55.903Z,60.82
2022-08-30T08:32:27.836Z,60.48
2022-08-30T08:35:33.817Z,59.94
2022-08-30T08:37:05.706Z,59.37
2022-08-30T08:38:37.891Z,59.69
2022-08-30T08:40:15.264Z,59.84
2022-08-30T08:42:18.098Z,59.88
2022-08-30T08:43:49.975Z,60.37
2022-08-30T08:45:27.250Z,59.80
2022-08-30T08:47:06.122Z,58.37
2022-08-30T08:49:00.071Z,58.91
2022-08-30T08:50:32.413Z,58.00
2022-08-30T08:52:24.853Z,57.93
2022-08-30T08:54:06.967Z,57.48
2022-08-30T08:55:49.194Z,58.20
2022-08-30T08:57:24.466Z,57.58
2022-08-30T08:58:58.131Z,57.21
2022-08-30T09:00:32.259Z,56.94
2022-08-30T09:02:28.700Z,56.72
2022-08-30T09:04:08.052Z,57.33
2022-08-30T09:05:40.864Z,56.87
2022-08-30T09:07:21.509Z,57.00
2022-08-30T09:08:53.305Z,56.31
2022-08-30T09:10:46.975Z,56.74
2022-08-30T09:12:18.222Z,56.69
2022-08-30T09:13:50.703Z,56.21
2022-08-30T09:15:29.815Z,55.23
2022-08-30T09:17:11.195Z,55.28
2022-08-30T09:18:46.911Z,55.82
2022-08-30T09:20:26.582Z,55.47
2022-08-30T09:21:59.863Z,54.79
2022-08-30T09:23:32.566Z,54.48
2022-08-30T09:25:19.135Z,53.59
2022-08-30T09:26:50.979Z,52.75
2022-08-30T09:28:35.860Z,53.02
2022-08-30T09:30:15.613Z,52.22
2022-08-30T09:32:05.637Z,52.20
2022-08-30T09:33:55.505Z,52.02
2022-08-30T09:35:48.855Z,52.25
2022-08-30T09:37:37.189Z,52.22
2022-08-30T09:39:41.666Z,52.03
2022-08-30T09:41:40.399Z,51.10
2022-08-30T09:43:18.412Z,50.80
2022-08-30T09:44:50.746Z,50.25
2022-08-30T09:46:24.704Z,49.56
2022-08-30T09:47:56.597Z,49.31
2022-08-30T09:49:37.919Z,48.79
2022-08-30T09:51:13.339Z,48.54
2022-08-30T09:53:14.925Z,48.49
2022-08-30T09:55:21.180Z,48.37
2022-08-30T09:57:01.820Z,48.24
2022-08-30T09:59:11.799Z,47.80
2022-08-30T10:00:50.960Z,46.76
2022-08-30T10:02:40.817Z,46.38
2022-08-30T10:04:30.970Z,45.19
2022-08-30T10:06:29.347Z,47.11
2022-08-30T10:08:35.422Z,45.95
2022-08-30T10:10:27.364Z,46.37
2022-08-30T10:12:20.645Z,46.15
2022-08-30T10:14:01.548Z,45.66
2022-08-30T10:15:34.763Z,45.64
2022-08-30T10:17:13.596Z,43.82
2022-08-30T10:19:06.222Z,44.38
2022-08-30T10:20:59.767Z,44.21
2022-08-30T10:22:33.820Z,44.71
2022-08-30T10:24:14.395Z,44.24
2022-08-30T10:26:36.824Z,43.17
2022-08-30T10:28:14.806Z,43.90
2022-08-30T10:29:49.292Z,44.30
2022-08-30T10:33:27.111Z,44.19
2022-08-30T10:35:07.356Z,44.17
2022-08-30T10:36:58.542Z,43.60
2022-08-30T10:38:35.668Z,44.57
2022-08-30T10:40:37.027Z,43.26
2022-08-30T10:42:13.761Z,42.94
2022-08-30T10:44:28.784Z,44.14
2022-08-30T10:46:04.322Z,42.85
2022-08-30T10:47:43.904Z,41.80
2022-08-30T10:49:19.837Z,42.31
2022-08-30T10:50:54.789Z,41.91
2022-08-30T10:52:45.043Z,42.39
2022-08-30T10:54:24.114Z,42.93
2022-08-30T10:56:07.794Z,42.15
2022-08-30T10:57:42.954Z,43.63
2022-08-30T10:59:18.131Z,42.54
2022-08-30T11:01:28.619Z,42.76
2022-08-30T11:03:34.307Z,43.50
2022-08-30T11:05:26.114Z,40.98
2022-08-30T11:07:22.571Z,41.06
2022-08-30T11:09:11.841Z,41.82
2022-08-30T11:11:14.579Z,42.30
2022-08-30T11:12:56.748Z,42.05
2022-08-30T11:14:29.178Z,41.48
2022-08-30T11:16:08.105Z,42.49
2022-08-30T11:17:55.470Z,42.69
2022-08-30T11:19:38.744Z,43.29
2022-08-30T11:21:36.868Z,41.94
2022-08-30T11:23:27.360Z,42.53
2022-08-30T11:25:11.626Z,42.67
2022-08-30T11:26:47.008Z,42.83
2022-08-30T11:28:37.006Z,42.71
2022-08-30T11:30:24.228Z,40.88
2022-08-30T11:32:24.870Z,40.12
2022-08-30T11:33:59.650Z,39.85
2022-08-30T11:35:38.847Z,41.33
2022-08-30T11:37:28.629Z,40.47
2022-08-30T11:39:09.319Z,40.91
2022-08-30T11:40:46.178Z,41.37
2022-08-30T11:42:37.529Z,40.11
2022-08-30T11:44:20.950Z,41.44
2022-08-30T11:45:55.723Z,41.84
2022-08-30T11:47:56.031Z,40.64
2022-08-30T11:49:53.923Z,40.75
2022-08-30T11:54:19.526Z,39.14
2022-08-30T11:56:13.255Z,38.99
2022-08-30T11:58:00.752Z,38.70
2022-08-30T11:59:57.247Z,38.98
2022-08-30T12:01:50.383Z,39.25
2022-08-30T12:03:33.158Z,38.82
2022-08-30T12:05:07.106Z,36.74
2022-08-30T12:06:41.706Z,37.01
2022-08-30T12:08:21.157Z,36.51
2022-08-30T12:09:59.305Z,37.35
2022-08-30T12:11:31.768Z,38.97
2022-08-30T12:13:04.280Z,38.98
2022-08-30T12:14:48.101Z,39.30
2022-08-30T12:17:04.951Z,38.88
2022-08-30T12:18:39.482Z,40.47
2022-08-30T12:20:23.990Z,38.65
2022-08-30T12:22:08.379Z,39.32
2022-08-30T12:23:49.009Z,38.28
2022-08-30T12:25:32.367Z,37.78
2022-08-30T12:27:24.967Z,37.20
2022-08-30T12:29:31.919Z,37.32
2022-08-30T12:31:11.889Z,38.22
2022-08-30T12:32:47.515Z,38.79
2022-08-30T12:34:28.417Z,37.88
2022-08-30T12:36:01.491Z,37.67
2022-08-30T12:37:37.630Z,38.65
2022-08-30T12:39:19.341Z,38.33
2022-08-30T12:40:58.002Z,38.50
2022-08-30T12:42:32.577Z,37.54
2022-08-30T12:44:05.090Z,38.24
2022-08-30T12:45:45.474Z,38.58
2022-08-30T12:47:25.914Z,37.91
2022-08-30T12:48:57.805Z,38.22
2022-08-30T12:50:36.509Z,38.36
2022-08-30T12:52:28.833Z,37.85
2022-08-30T12:54:31.224Z,38.01
2022-08-30T12:56:05.016Z,38.04
2022-08-30T12:58:10.125Z,37.09
2022-08-30T12:59:59.184Z,37.46
2022-08-30T13:01:37.453Z,38.08
2022-08-30T13:03:30.429Z,38.21
2022-08-30T13:05:22.975Z,37.45
2022-08-30T13:06:57.783Z,37.59
2022-08-30T13:08:42.162Z,37.44
2022-08-30T13:10:20.039Z,38.66
2022-08-30T13:11:52.104Z,38.99
2022-08-30T13:13:30.761Z,38.16
2022-08-30T13:15:18.771Z,38.19
2022-08-30T13:17:05.612Z,37.17
2022-08-30T13:18:38.264Z,37.58
2022-08-30T13:20:16.280Z,37.25
2022-08-30T13:21:52.875Z,36.24
2022-08-30T13:23:24.709Z,36.78
2022-08-30T13:24:57.332Z,36.53
2022-08-30T13:26:32.483Z,36.93
2022-08-30T13:28:06.104Z,36.86
2022-08-30T13:29:38.576Z,37.58
2022-08-30T13:31:10.427Z,37.05
2022-08-30T13:32:42.732Z,37.92
2022-08-30T13:34:14.639Z,37.75
2022-08-30T13:35:46.693Z,37.85
2022-08-30T13:39:14.685Z,37.16
2022-08-30T13:40:47.552Z,37.16
2022-08-30T13:42:34.750Z,36.34
2022-08-30T13:44:11.392Z,36.13
2022-08-30T13:45:47.247Z,36.37
2022-08-30T13:47:35.621Z,36.57
2022-08-30T13:51:04.672Z,36.83
2022-08-30T13:52:36.644Z,36.66
2022-08-30T13:54:08.524Z,35.90
2022-08-30T13:55:41.757Z,36.40
2022-08-30T13:57:14.161Z,35.99
2022-08-30T13:58:46.466Z,35.55
2022-08-30T14:00:21.863Z,36.31
2022-08-30T14:02:11.909Z,36.18
2022-08-30T14:06:15.532Z,36.00
2022-08-30T14:07:32.132Z,37.58
2022-08-30T14:09:07.261Z,36.09
2022-08-30T14:10:47.020Z,36.70
2022-08-30T14:12:52.532Z,36.71
2022-08-30T14:14:16.100Z,35.89
2022-08-30T14:17:50.560Z,35.77
2022-08-30T14:19:22.366Z,36.30
2022-08-30T14:20:54.296Z,36.30
2022-08-30T14:22:26.507Z,36.79
2022-08-30T14:23:58.940Z,37.21
2022-08-30T14:25:31.631Z,36.81
2022-08-30T14:27:03.450Z,37.24
2022-08-30T14:28:35.275Z,36.42
2022-08-30T14:30:08.713Z,35.81
2022-08-30T14:31:40.625Z,35.87
2022-08-30T14:33:13.340Z,35.33
2022-08-30T14:34:45.441Z,35.79
2022-08-30T14:36:20.056Z,35.62
2022-08-30T14:37:52.834Z,35.17
2022-08-30T14:39:24.868Z,36.10
2022-08-30T14:40:56.719Z,36.37
2022-08-30T14:42:32.589Z,36.12
2022-08-30T14:44:04.447Z,36.46
2022-08-30T14:45:38.652Z,34.98
2022-08-30T14:47:11.618Z,35.78
2022-08-30T14:48:43.473Z,36.46
2022-08-30T14:50:16.109Z,35.96
2022-08-30T14:51:51.317Z,34.73
2022-08-30T14:53:23.187Z,35.24
2022-08-30T14:54:58.602Z,35.28
2022-08-30T14:56:32.208Z,34.11
2022-08-30T14:58:06.960Z,34.32
2022-08-30T14:59:38.898Z,34.58
2022-08-30T15:01:12.747Z,35.79
2022-08-30T15:02:45.729Z,35.40
2022-08-30T15:04:18.274Z,35.32
2022-08-30T15:05:53.470Z,35.15
2022-08-30T15:07:25.365Z,35.57
2022-08-30T15:08:57.713Z,35.37
2022-08-30T15:10:30.244Z,35.14
2022-08-30T15:12:03.886Z,36.08
2022-08-30T15:13:36.177Z,35.09
2022-08-30T15:15:08.667Z,35.63
2022-08-30T15:16:41.523Z,36.23
2022-08-30T15:18:13.548Z,35.95
2022-08-30T15:19:45.585Z,35.60
2022-08-30T15:21:49.694Z,35.27
2022-08-30T15:23:22.813Z,35.23
2022-08-30T15:25:01.708Z,35.25
2022-08-30T15:26:33.631Z,35.10
2022-08-30T15:28:05.457Z,36.52
2022-08-30T15:29:37.731Z,36.76
2022-08-30T15:31:09.776Z,36.82
2022-08-30T15:32:41.707Z,36.07
2022-08-30T15:34:18.554Z,36.98
2022-08-30T15:35:52.524Z,36.42
2022-08-30T15:37:27.292Z,36.77
2022-08-30T15:39:00.644Z,37.40
2022-08-30T15:40:33.297Z,37.34
2022-08-30T15:42:06.402Z,36.95
2022-08-30T15:43:38.929Z,37.04
2022-08-30T15:45:11.226Z,36.86
2022-08-30T15:46:45.251Z,36.88
2022-08-30T15:48:17.420Z,36.81
2022-08-30T15:49:57.439Z,36.57
2022-08-30T15:51:41.717Z,37.06
2022-08-30T15:53:13.931Z,36.27
2022-08-30T15:54:48.444Z,36.83
2022-08-30T15:56:20.625Z,35.96
2022-08-30T15:57:52.484Z,36.96
2022-08-30T15:59:28.411Z,36.15
2022-08-30T16:01:00.407Z,36.81
2022-08-30T16:02:32.391Z,35.81
2022-08-30T16:04:04.405Z,36.29
2022-08-30T16:05:36.295Z,35.56
2022-08-30T16:07:08.819Z,36.01
2022-08-30T16:08:40.724Z,36.42
2022-08-30T16:10:14.452Z,36.61
2022-08-30T16:11:46.259Z,36.71
2022-08-30T16:13:18.750Z,36.99
2022-08-30T16:14:51.099Z,36.47
2022-08-30T16:16:23.761Z,35.67
2022-08-30T16:17:56.527Z,35.76
2022-08-30T16:19:29.989Z,36.28
2022-08-30T16:21:19.186Z,36.99
2022-08-30T16:22:51.540Z,36.44
2022-08-30T16:24:25.898Z,37.17
2022-08-30T16:26:03.285Z,37.18
2022-08-30T16:27:36.256Z,37.43
2022-08-30T16:29:08.830Z,36.88
2022-08-30T16:30:40.830Z,37.37
2022-08-30T16:32:15.870Z,37.37
2022-08-30T16:33:48.238Z,37.71
2022-08-30T16:35:24.767Z,37.54
2022-08-30T16:36:56.633Z,37.82
2022-08-30T16:38:28.857Z,37.83
2022-08-30T16:40:01.565Z,37.25
2022-08-30T16:41:33.540Z,38.83
2022-08-30T16:43:06.399Z,38.67
2022-08-30T16:44:38.282Z,38.09
2022-08-30T16:46:13.460Z,37.98
2022-08-30T16:47:45.321Z,38.75
2022-08-30T16:49:17.982Z,37.58
2022-08-30T16:50:50.466Z,38.21
2022-08-30T16:52:22.294Z,38.35
2022-08-30T16:54:03.862Z,37.71
2022-08-30T16:55:36.854Z,38.54
2022-08-30T16:57:08.681Z,37.41
2022-08-30T16:58:41.319Z,37.25
2022-08-30T17:00:14.165Z,37.76
2022-08-30T17:01:46.053Z,37.61
2022-08-30T17:03:21.171Z,37.84
2022-08-30T17:04:53.370Z,38.09
2022-08-30T17:06:25.616Z,38.21
2022-08-30T17:07:58.260Z,37.97
2022-08-30T17:09:29.949Z,38.51
2022-08-30T17:11:02.043Z,38.03
2022-08-30T17:12:33.904Z,38.65
2022-08-30T17:14:08.350Z,38.36
2022-08-30T17:15:40.349Z,38.01
2022-08-30T17:17:13.565Z,38.56
2022-08-30T17:18:45.953Z,38.45
2022-08-30T17:20:18.475Z,38.33
2022-08-30T17:21:50.358Z,38.47
2022-08-30T17:23:23.373Z,39.04
2022-08-30T17:24:55.624Z,38.57
2022-08-30T17:26:28.116Z,38.77
2022-08-30T17:28:00.438Z,38.76
2022-08-30T17:29:32.906Z,38.44
2022-08-30T17:31:05.891Z,38.60
2022-08-30T17:32:37.890Z,39.51
2022-08-30T17:34:13.289Z,39.43
2022-08-30T17:35:45.261Z,39.55
2022-08-30T17:37:20.403Z,39.28
2022-08-30T17:38:52.282Z,38.97
2022-08-30T17:40:24.247Z,39.56
2022-08-30T17:41:59.506Z,39.80
2022-08-30T17:43:35.956Z,40.36
2022-08-30T17:45:09.551Z,39.99
2022-08-30T17:46:41.538Z,39.83
2022-08-30T17:48:13.414Z,40.09
2022-08-30T17:49:45.324Z,40.64
2022-08-30T17:51:17.147Z,40.38
2022-08-30T17:52:50.328Z,40.81
2022-08-30T17:54:22.290Z,40.12
2022-08-30T17:55:56.729Z,40.02
2022-08-30T17:57:30.429Z,40.40
2022-08-30T17:59:04.973Z,40.58
2022-08-30T18:00:36.789Z,40.85
2022-08-30T18:02:11.165Z,41.02
2022-08-30T18:03:45.203Z,41.13
2022-08-30T18:05:17.396Z,40.68
2022-08-30T18:06:57.557Z,40.52
2022-08-30T18:08:31.196Z,40.77
2022-08-30T18:10:04.585Z,41.14
2022-08-30T18:11:39.773Z,40.58
2022-08-30T18:13:12.616Z,40.74
2022-08-30T18:14:44.655Z,41.38
2022-08-30T18:16:21.417Z,41.38
2022-08-30T18:17:53.669Z,41.25
2022-08-30T18:19:29.714Z,40.54
2022-08-30T18:21:01.514Z,41.21
2022-08-30T18:22:33.359Z,41.50
2022-08-30T18:24:06.102Z,41.54
2022-08-30T18:25:37.998Z,41.12
2022-08-30T18:27:09.975Z,41.43
2022-08-30T18:28:43.091Z,41.42
2022-08-30T18:30:16.539Z,41.30
2022-08-30T18:31:49.393Z,41.29
2022-08-30T18:33:21.236Z,41.67
2022-08-30T18:34:53.121Z,41.88
2022-08-30T18:36:24.938Z,41.46
2022-08-30T18:37:57.474Z,41.40
2022-08-30T18:41:21.482Z,41.91
2022-08-30T18:42:53.683Z,41.76
2022-08-30T18:44:28.832Z,42.19
2022-08-30T18:46:06.252Z,41.83
2022-08-30T18:47:38.142Z,42.47
2022-08-30T18:49:14.597Z,42.29
2022-08-30T18:50:49.197Z,42.79
2022-08-30T18:52:21.059Z,42.38
2022-08-30T18:53:53.957Z,42.02
2022-08-30T18:55:26.159Z,43.21
2022-08-30T18:56:58.274Z,42.62
2022-08-30T18:58:30.142Z,42.29
2022-08-30T19:00:03.238Z,42.81
2022-08-30T19:03:13.205Z,44.62
2022-08-30T19:04:45.727Z,53.32
2022-08-30T19:06:17.672Z,51.43
2022-08-30T19:07:51.284Z,53.62
2022-08-30T19:09:27.286Z,53.51
2022-08-30T19:11:04.734Z,50.69
2022-08-30T19:12:37.123Z,51.86
2022-08-30T19:14:09.149Z,51.60
2022-08-30T19:15:41.102Z,52.92
2022-08-30T19:17:13.352Z,50.24
2022-08-30T19:18:45.269Z,51.05
2022-08-30T19:20:22.186Z,52.13
2022-08-30T19:21:54.100Z,49.83
2022-08-30T19:23:34.037Z,52.12
2022-08-30T19:25:08.825Z,50.35
2022-08-30T19:26:42.687Z,51.82
2022-08-30T19:28:19.170Z,51.55
2022-08-30T19:29:53.109Z,50.98
2022-08-30T19:31:25.858Z,51.04
2022-08-30T19:32:57.878Z,51.38
2022-08-30T19:34:29.762Z,51.25
2022-08-30T19:36:01.975Z,50.63
2022-08-30T19:37:34.517Z,51.35
2022-08-30T19:39:06.405Z,50.70
2022-08-30T19:40:38.368Z,50.59
2022-08-30T19:42:10.705Z,51.21
2022-08-30T19:43:42.628Z,49.53
2022-08-30T19:45:18.720Z,51.08
2022-08-30T19:46:54.004Z,49.58
2022-08-30T19:48:32.737Z,50.57
2022-08-30T19:50:06.873Z,49.74
2022-08-30T19:51:46.811Z,51.22
2022-08-30T19:53:19.627Z,49.42
2022-08-30T19:54:56.988Z,50.89
2022-08-30T19:56:29.039Z,49.29
2022-08-30T19:58:01.478Z,50.56
2022-08-30T19:59:33.356Z,49.54
2022-08-30T20:01:12.296Z,50.33
2022-08-30T20:02:57.706Z,50.31
2022-08-30T20:04:30.095Z,49.52
2022-08-30T20:06:01.967Z,50.02
2022-08-30T20:07:36.812Z,49.70
2022-08-30T20:09:10.476Z,50.78
2022-08-30T20:10:44.018Z,50.23
2022-08-30T20:12:17.253Z,50.37
2022-08-30T20:13:49.108Z,48.87
2022-08-30T20:15:22.235Z,49.52
2022-08-30T20:16:54.686Z,50.13
2022-08-30T20:18:26.626Z,50.59
2022-08-30T20:20:01.640Z,50.57
2022-08-30T20:21:34.010Z,50.15
2022-08-30T20:23:07.257Z,50.02
2022-08-30T20:24:27.446Z,41.88
2022-08-30T20:24:44.007Z,50.32
2022-08-30T20:26:16.303Z,51.18
2022-08-30T20:27:48.401Z,50.60
2022-08-30T20:29:20.564Z,51.55
2022-08-30T20:30:54.210Z,50.64
2022-08-30T20:32:26.207Z,50.42
2022-08-30T20:33:58.222Z,49.28
2022-08-30T20:35:30.055Z,50.11
2022-08-30T20:37:02.015Z,50.73
2022-08-30T20:38:34.052Z,50.00
2022-08-30T20:40:06.577Z,50.46
2022-08-30T20:41:38.504Z,50.04
2022-08-30T20:43:14.717Z,49.73
2022-08-30T20:44:46.713Z,50.51
2022-08-30T20:46:20.575Z,49.77
2022-08-30T20:47:52.620Z,49.50